Brussels South Charleroi Airport

EBCI · Hainaut, Wallonia, 比利时

罗盘
风向 的 风向 的 风向 到 风向 020° 布鲁塞尔南部-沙勒罗瓦机场 6/24
风: 8 kt, 3 beaufort

6 kt

6 kt
改变
0 ft 1.000 2.000 3.000 4.000 5.000
Cloud Cloud
FEW 3.000
METAR EBCI 220950Z 02008KT 320V050 9999 FEW030 07/M01 Q1025 NOSIG

METAR 布鲁塞尔南部-沙勒罗瓦机场 - EBCI/CRL

布鲁塞尔南部-沙勒罗瓦机场是,比利时中的中型机场。 该机场位于纬度50,46115和经度4,45731。 该机场有一条跑道: 6/24. 本场的ICAO机场代码为EBCI。 该机场的IATA代码为CRL。 机场在Bruxelles FIR中。

该航空气象观测是针对布鲁塞尔南部-沙勒罗瓦机场在2024年4月22日 11:50, 当地时间进行的。

机场观察

风向为020°,速度为8 kt。 风向在320°和050°之间变化。

可见度为10 km 或者更多。

有几云在3.000 ft的高度。 没有观察到天花板。

温度为7 °C,阵风为3 °C。 露点为-1 °C,相对湿度为57%。 海平面上的气压为1025 hPa (QNH)。

白天

今天,太阳从06:32升起,在20:48降落。 这适用于布鲁塞尔南部-沙勒罗瓦机场,世界夏令时可能有所不同。 当地时间与世界标准时间之间的时差为+2 小时。 夏令时目前正在进行中。

公司介绍

在这个机场,你可以找到飞行学校。 这个机场上的公司有Air Academy New CAG, Belgian Flight School, Brussels Aviation School 和 Venyo Academy。

体会

到Vliegles.nl去找飞行课程,跳伞和其他飞行体验。 浏览页面,了解布鲁塞尔南部-沙勒罗瓦机场附近所有可用的活动。 你也可以使用搜索功能来寻找你所在地附近的特定飞行课程、跳伞或其他飞行体验。

跑道

Id 标题 侧风 逆风 侧风 %
6/24 065°-245° 6 kt 6 kt 71 %

逆风成分最大的方向会被突出显示,并用于横风计算。 这并不一定意味着这个方向在使用。

乌云

3.000 ft FEW 几云

温度 & 天气

温度 7 °C
露点 -1 °C
相对湿度 57%
风寒 3 °C
Kp-index 1 (0-9)

白天

日出
06:32
中午
13:40
日落
20:48 (8:25)

小工具

你想在你的网站上有一个关于布鲁塞尔南部-沙勒罗瓦机场的当前航空天气(METAR)的小部件吗?

显示HTML代码
报告变更